Time;durP1;ratioP1;P1;durP2;ratioP2;P2;SDS_P1;SDS_P2;PMS_P1;PMS_P2;Temp;Humidity;BMP_temperature;BMP_pressure;BME280_temperature;BME280_humidity;BME280_pressure;Samples;Min_cycle;Max_cycle;Signal;HPM_P1;HPM_P2
2024/01/22 00:02:02;;;;;;;5.97;4.70;;;;;;;;;;5075728;28;20232;-62
2024/01/22 00:04:30;;;;;;;4.45;4.05;;;;;;;;;;5074552;28;20234;-61
2024/01/22 00:06:57;;;;;;;4.43;4.03;;;;;;;;;;5075689;28;20280;-62
2024/01/22 00:09:24;;;;;;;4.70;4.20;;;;;;;;;;5075438;28;20207;-62
2024/01/22 00:11:51;;;;;;;6.20;5.57;;;;;;;;;;5075415;28;20458;-62
2024/01/22 00:14:18;;;;;;;6.40;4.28;;;;;;;;;;5075679;28;20644;-62
2024/01/22 00:16:45;;;;;;;6.07;4.63;;;;;;;;;;5075718;28;20285;-62
2024/01/22 00:19:12;;;;;;;6.40;4.97;;;;;;;;;;5075354;28;20227;-62
2024/01/22 00:21:43;;;;;;;9.25;4.30;;;;;;;;;;5075404;28;20223;-61
2024/01/22 00:24:10;;;;;;;5.43;4.93;;;;;;;;;;5075350;28;20196;-62
2024/01/22 00:26:37;;;;;;;5.30;4.80;;;;;;;;;;5075357;28;20221;-62
2024/01/22 00:29:04;;;;;;;6.50;4.55;;;;;;;;;;5075315;28;20189;-62
2024/01/22 00:31:31;;;;;;;5.55;4.63;;;;;;;;;;5075181;28;20277;-62
2024/01/22 00:33:58;;;;;;;5.05;4.47;;;;;;;;;;5075132;28;20664;-62
2024/01/22 00:36:25;;;;;;;11.00;4.93;;;;;;;;;;5075075;28;20607;-61
2024/01/22 00:38:53;;;;;;;5.07;4.57;;;;;;;;;;5074763;28;20606;-62
2024/01/22 00:41:20;;;;;;;7.75;4.53;;;;;;;;;;5075063;28;20557;-62
2024/01/22 00:43:47;;;;;;;4.47;4.03;;;;;;;;;;5075011;28;20271;-62
2024/01/22 00:46:14;;;;;;;5.80;4.55;;;;;;;;;;5074875;28;20200;-62
2024/01/22 00:48:41;;;;;;;5.65;4.78;;;;;;;;;;5074756;28;20268;-62
2024/01/22 00:51:08;;;;;;;6.70;4.80;;;;;;;;;;5074841;28;20228;-62
2024/01/22 00:53:35;;;;;;;7.53;4.40;;;;;;;;;;5074835;28;20284;-62
2024/01/22 00:56:03;;;;;;;4.97;4.32;;;;;;;;;;5074728;28;20191;-62
2024/01/22 00:58:30;;;;;;;8.05;4.63;;;;;;;;;;5074698;28;20868;-62
2024/01/22 01:00:57;;;;;;;4.32;3.92;;;;;;;;;;5074490;28;20217;-61
2024/01/22 01:03:24;;;;;;;5.40;4.90;;;;;;;;;;5074471;28;20283;-62
2024/01/22 01:05:51;;;;;;;4.60;4.20;;;;;;;;;;5074274;28;20189;-62
2024/01/22 01:08:18;;;;;;;5.53;3.83;;;;;;;;;;5074470;28;20185;-62
2024/01/22 01:10:45;;;;;;;4.45;4.05;;;;;;;;;;5074399;28;20280;-62
2024/01/22 01:13:13;;;;;;;5.35;3.85;;;;;;;;;;5074241;28;20694;-62
2024/01/22 01:15:40;;;;;;;5.93;4.55;;;;;;;;;;5073982;28;20192;-62
2024/01/22 01:18:07;;;;;;;5.97;4.30;;;;;;;;;;5074136;28;20277;-62
2024/01/22 01:20:34;;;;;;;5.20;3.50;;;;;;;;;;5073742;28;20722;-61
2024/01/22 01:23:01;;;;;;;5.30;4.03;;;;;;;;;;5074417;28;20185;-61
2024/01/22 01:25:28;;;;;;;8.25;4.32;;;;;;;;;;5073940;28;20221;-62
2024/01/22 01:27:55;;;;;;;5.38;4.22;;;;;;;;;;5074016;28;20216;-61
2024/01/22 01:30:23;;;;;;;4.43;3.35;;;;;;;;;;5073926;28;20193;-62
2024/01/22 01:32:50;;;;;;;4.00;3.60;;;;;;;;;;5073822;28;20531;-62
2024/01/22 01:35:17;;;;;;;6.45;4.30;;;;;;;;;;5073726;28;20284;-62
2024/01/22 01:37:44;;;;;;;5.53;4.35;;;;;;;;;;5073831;28;20189;-62
2024/01/22 01:40:12;;;;;;;4.47;3.47;;;;;;;;;;5073780;28;20227;-62
2024/01/22 01:42:42;;;;;;;4.40;4.00;;;;;;;;;;5073748;28;20196;-62
2024/01/22 01:45:11;;;;;;;5.00;4.30;;;;;;;;;;5073704;28;20196;-62
2024/01/22 01:47:39;;;;;;;5.30;3.60;;;;;;;;;;5073518;28;20207;-61
2024/01/22 01:50:07;;;;;;;8.00;4.25;;;;;;;;;;5073681;28;20195;-62
2024/01/22 01:52:34;;;;;;;4.72;3.42;;;;;;;;;;5073666;28;20193;-61
2024/01/22 01:55:02;;;;;;;4.53;3.72;;;;;;;;;;5073533;28;20284;-61
2024/01/22 01:57:29;;;;;;;4.32;3.40;;;;;;;;;;5073511;28;20242;-62
2024/01/22 01:59:57;;;;;;;5.80;3.67;;;;;;;;;;5073221;28;20213;-62
2024/01/22 02:02:24;;;;;;;8.20;3.60;;;;;;;;;;5073500;28;20259;-62
2024/01/22 02:04:52;;;;;;;3.85;2.78;;;;;;;;;;5073541;28;20193;-62
2024/01/22 02:07:19;;;;;;;3.60;3.30;;;;;;;;;;5073655;28;20193;-62
2024/01/22 02:09:46;;;;;;;5.63;3.83;;;;;;;;;;5073372;28;20223;-61
2024/01/22 02:12:13;;;;;;;4.60;4.20;;;;;;;;;;5073194;28;20239;-62
2024/01/22 02:14:40;;;;;;;5.85;3.95;;;;;;;;;;5073127;28;20272;-62
2024/01/22 02:17:07;;;;;;;7.63;3.55;;;;;;;;;;5073337;28;20192;-62
2024/01/22 02:19:34;;;;;;;4.25;3.17;;;;;;;;;;5072968;28;20276;-62
2024/01/22 02:22:02;;;;;;;3.63;3.33;;;;;;;;;;5073307;28;20220;-62
2024/01/22 02:24:31;;;;;;;3.78;3.35;;;;;;;;;;5073077;28;20545;-61
2024/01/22 02:26:58;;;;;;;4.38;3.70;;;;;;;;;;5072382;28;20195;-62
2024/01/22 02:29:25;;;;;;;5.47;3.15;;;;;;;;;;5073111;28;20193;-61
2024/01/22 02:31:52;;;;;;;4.00;2.85;;;;;;;;;;5072952;28;20716;-62
2024/01/22 02:34:19;;;;;;;4.38;3.47;;;;;;;;;;5073127;28;20189;-61
2024/01/22 02:36:46;;;;;;;3.65;3.30;;;;;;;;;;5073247;28;20557;-61
2024/01/22 02:39:13;;;;;;;3.47;3.17;;;;;;;;;;5072956;28;20280;-61
2024/01/22 02:41:42;;;;;;;6.38;3.17;;;;;;;;;;5072758;28;20308;-62
2024/01/22 02:44:09;;;;;;;4.32;3.60;;;;;;;;;;5073034;28;20189;-62
2024/01/22 02:46:36;;;;;;;3.42;3.13;;;;;;;;;;5073013;28;20193;-61
2024/01/22 02:49:03;;;;;;;4.22;3.83;;;;;;;;;;5072995;28;20201;-62
2024/01/22 02:51:30;;;;;;;4.65;3.05;;;;;;;;;;5072851;28;20327;-62
2024/01/22 02:53:57;;;;;;;4.43;3.00;;;;;;;;;;5072840;28;20216;-62
2024/01/22 02:56:24;;;;;;;6.03;3.35;;;;;;;;;;5072676;28;20229;-62
2024/01/22 02:58:53;;;;;;;3.88;3.40;;;;;;;;;;5072829;28;20193;-62
2024/01/22 03:01:20;;;;;;;3.50;3.17;;;;;;;;;;5072727;28;20335;-62
2024/01/22 03:03:47;;;;;;;3.03;2.83;;;;;;;;;;5072771;28;20548;-62
2024/01/22 03:06:14;;;;;;;4.35;3.95;;;;;;;;;;5072643;28;20284;-61
2024/01/22 03:08:41;;;;;;;3.78;3.15;;;;;;;;;;5072563;28;20200;-62
2024/01/22 03:11:08;;;;;;;5.22;3.42;;;;;;;;;;5072758;28;20196;-62
2024/01/22 03:13:35;;;;;;;3.83;3.40;;;;;;;;;;5072635;28;20193;-62
2024/01/22 03:16:03;;;;;;;3.88;3.47;;;;;;;;;;5072656;28;20185;-62
2024/01/22 03:18:30;;;;;;;7.47;3.53;;;;;;;;;;5072562;28;20196;-61
2024/01/22 03:20:57;;;;;;;4.00;3.17;;;;;;;;;;5072315;28;20229;-62
2024/01/22 03:23:24;;;;;;;4.43;4.07;;;;;;;;;;5072586;28;20233;-62
2024/01/22 03:25:51;;;;;;;4.07;3.47;;;;;;;;;;5072784;28;20189;-63
2024/01/22 03:28:18;;;;;;;4.38;3.30;;;;;;;;;;5072847;28;20189;-62
2024/01/22 03:30:45;;;;;;;3.30;2.92;;;;;;;;;;5072484;28;20189;-61
2024/01/22 03:33:13;;;;;;;3.67;3.38;;;;;;;;;;5072397;28;20306;-62
2024/01/22 03:35:40;;;;;;;3.95;3.65;;;;;;;;;;5072295;28;20185;-62
2024/01/22 03:38:07;;;;;;;3.85;3.30;;;;;;;;;;5073199;28;20195;-62
2024/01/22 03:40:34;;;;;;;3.92;3.40;;;;;;;;;;5076038;28;20674;-62
2024/01/22 03:43:01;;;;;;;4.07;3.05;;;;;;;;;;5076136;28;20276;-62
2024/01/22 03:45:28;;;;;;;3.00;2.70;;;;;;;;;;5075965;28;20371;-61
2024/01/22 03:47:55;;;;;;;4.88;3.05;;;;;;;;;;5075892;28;20276;-62
2024/01/22 03:50:23;;;;;;;2.85;2.60;;;;;;;;;;5076174;28;20189;-62
2024/01/22 03:52:50;;;;;;;4.80;2.88;;;;;;;;;;5076119;28;20197;-62
2024/01/22 03:55:17;;;;;;;4.60;3.40;;;;;;;;;;5075991;28;20211;-62
2024/01/22 03:57:44;;;;;;;3.05;2.80;;;;;;;;;;5075676;28;20193;-62
2024/01/22 04:00:12;;;;;;;5.35;2.88;;;;;;;;;;5075762;28;20217;-62
2024/01/22 04:02:39;;;;;;;4.07;2.85;;;;;;;;;;5075713;28;20262;-62
2024/01/22 04:05:06;;;;;;;3.28;2.97;;;;;;;;;;5075575;28;20560;-62
2024/01/22 04:07:34;;;;;;;3.40;3.10;;;;;;;;;;5075718;28;20185;-62
2024/01/22 04:10:01;;;;;;;3.40;3.20;;;;;;;;;;5075615;28;20652;-62
2024/01/22 04:12:28;;;;;;;5.22;3.45;;;;;;;;;;5075666;28;20193;-62
2024/01/22 04:14:55;;;;;;;3.13;2.80;;;;;;;;;;5075454;28;20217;-62
2024/01/22 04:17:22;;;;;;;3.30;3.00;;;;;;;;;;5075418;28;20185;-62
2024/01/22 04:19:49;;;;;;;3.85;2.60;;;;;;;;;;5075403;28;20217;-62
2024/01/22 04:22:16;;;;;;;2.83;2.63;;;;;;;;;;5075430;28;20576;-63
2024/01/22 04:24:44;;;;;;;3.70;2.80;;;;;;;;;;5075365;28;20590;-62
2024/01/22 04:27:11;;;;;;;3.88;2.58;;;;;;;;;;5075218;28;20502;-62
2024/01/22 04:29:38;;;;;;;4.68;2.72;;;;;;;;;;5075364;28;20193;-62
2024/01/22 04:32:06;;;;;;;3.88;3.50;;;;;;;;;;5075027;28;20232;-62
2024/01/22 04:34:35;;;;;;;4.75;2.70;;;;;;;;;;5075210;28;20280;-62
2024/01/22 04:37:02;;;;;;;4.63;2.72;;;;;;;;;;5075141;28;20285;-62
2024/01/22 04:39:29;;;;;;;2.67;2.10;;;;;;;;;;5075080;28;20189;-62
2024/01/22 04:41:57;;;;;;;5.00;3.00;;;;;;;;;;5074856;28;20572;-62
2024/01/22 04:44:27;;;;;;;2.92;2.70;;;;;;;;;;5074844;28;20189;-62
2024/01/22 04:46:54;;;;;;;3.17;2.88;;;;;;;;;;5074800;28;20189;-62
2024/01/22 04:49:21;;;;;;;6.55;3.00;;;;;;;;;;5074356;28;20762;-62
2024/01/22 04:51:48;;;;;;;5.00;2.40;;;;;;;;;;5074879;28;20185;-62
2024/01/22 04:54:15;;;;;;;3.53;2.70;;;;;;;;;;5074709;28;20189;-62
2024/01/22 04:56:42;;;;;;;2.53;2.30;;;;;;;;;;5074703;28;20665;-62
2024/01/22 04:59:10;;;;;;;3.30;2.40;;;;;;;;;;5074538;28;20497;-62
2024/01/22 05:01:38;;;;;;;6.82;2.47;;;;;;;;;;5074619;28;20251;-62
2024/01/22 05:04:05;;;;;;;2.20;2.00;;;;;;;;;;5074572;28;20284;-62
2024/01/22 05:06:32;;;;;;;2.42;2.22;;;;;;;;;;5074604;28;20193;-62
2024/01/22 05:08:59;;;;;;;2.40;2.17;;;;;;;;;;5074434;28;20280;-62
2024/01/22 05:11:26;;;;;;;2.22;1.95;;;;;;;;;;5074295;28;20193;-62
2024/01/22 05:13:53;;;;;;;2.63;2.40;;;;;;;;;;5074622;28;20203;-62
2024/01/22 05:16:22;;;;;;;2.10;1.83;;;;;;;;;;5074169;28;20702;-62
2024/01/22 05:18:50;;;;;;;2.88;2.20;;;;;;;;;;5074271;28;20451;-62
2024/01/22 05:21:17;;;;;;;4.80;2.50;;;;;;;;;;5073859;28;20271;-62
2024/01/22 05:23:44;;;;;;;4.90;2.20;;;;;;;;;;5073959;28;20189;-62
2024/01/22 05:26:11;;;;;;;3.33;2.50;;;;;;;;;;5073879;28;20450;-62
2024/01/22 05:28:38;;;;;;;1.90;1.70;;;;;;;;;;5074000;28;20450;-62
2024/01/22 05:31:05;;;;;;;2.30;2.10;;;;;;;;;;5074023;28;20197;-62
2024/01/22 05:33:33;;;;;;;7.47;2.20;;;;;;;;;;5073879;28;20189;-62
2024/01/22 05:36:00;;;;;;;2.97;2.58;;;;;;;;;;5073838;28;20652;-62
2024/01/22 05:38:27;;;;;;;3.27;2.23;;;;;;;;;;5073943;28;20196;-62
2024/01/22 05:40:54;;;;;;;2.28;2.08;;;;;;;;;;5073630;28;20502;-62
2024/01/22 05:43:21;;;;;;;2.80;2.07;;;;;;;;;;5073834;28;20199;-62
2024/01/22 05:45:48;;;;;;;2.53;1.90;;;;;;;;;;5073719;28;20447;-62
2024/01/22 05:48:15;;;;;;;3.10;2.00;;;;;;;;;;5073660;28;20535;-62
2024/01/22 05:50:43;;;;;;;3.77;2.13;;;;;;;;;;5073431;28;20648;-62
2024/01/22 05:53:10;;;;;;;3.53;2.00;;;;;;;;;;5073302;28;20538;-62
2024/01/22 05:55:39;;;;;;;2.73;2.00;;;;;;;;;;5073537;28;20263;-62
2024/01/22 05:58:06;;;;;;;4.50;2.22;;;;;;;;;;5073519;28;20448;-62
2024/01/22 06:00:33;;;;;;;2.45;1.92;;;;;;;;;;5073328;28;20189;-62
2024/01/22 06:03:00;;;;;;;1.75;1.65;;;;;;;;;;5072491;28;20221;-62
2024/01/22 06:05:27;;;;;;;1.97;1.87;;;;;;;;;;5073200;28;20640;-62
2024/01/22 06:07:55;;;;;;;2.67;1.90;;;;;;;;;;5073140;28;20547;-62
2024/01/22 06:10:22;;;;;;;2.00;1.90;;;;;;;;;;5073301;28;20190;-62
2024/01/22 06:12:49;;;;;;;1.83;1.70;;;;;;;;;;5073430;28;20280;-62
2024/01/22 06:15:16;;;;;;;1.43;1.30;;;;;;;;;;5073269;28;20509;-62
2024/01/22 06:17:44;;;;;;;1.70;1.57;;;;;;;;;;5073156;28;20449;-62
2024/01/22 06:20:12;;;;;;;1.90;1.60;;;;;;;;;;5072925;28;20558;-62
2024/01/22 06:22:39;;;;;;;1.73;1.63;;;;;;;;;;5072912;28;20578;-62
2024/01/22 06:25:07;;;;;;;4.57;1.98;;;;;;;;;;5073205;28;20538;-62
2024/01/22 06:27:34;;;;;;;4.30;1.73;;;;;;;;;;5072992;28;20242;-62
2024/01/22 06:30:03;;;;;;;1.67;1.53;;;;;;;;;;5073057;28;20443;-62
2024/01/22 06:32:30;;;;;;;3.67;1.63;;;;;;;;;;5073048;28;20488;-62
2024/01/22 06:34:57;;;;;;;4.70;1.50;;;;;;;;;;5072775;28;20474;-62
2024/01/22 06:37:24;;;;;;;2.00;1.40;;;;;;;;;;5073088;28;20450;-62
2024/01/22 06:39:52;;;;;;;1.00;1.00;;;;;;;;;;5072933;28;20191;-62
2024/01/22 06:42:20;;;;;;;1.83;1.73;;;;;;;;;;5072828;28;20216;-62
2024/01/22 06:44:47;;;;;;;1.47;1.23;;;;;;;;;;5072720;28;21023;-62
2024/01/22 06:47:14;;;;;;;3.00;1.80;;;;;;;;;;5072727;28;20530;-62
2024/01/22 06:49:41;;;;;;;2.60;1.60;;;;;;;;;;5072734;28;20443;-62
2024/01/22 06:52:08;;;;;;;3.40;1.40;;;;;;;;;;5072780;28;20943;-61
2024/01/22 06:54:35;;;;;;;1.90;1.70;;;;;;;;;;5073028;28;20443;-62
2024/01/22 06:57:02;;;;;;;1.20;1.10;;;;;;;;;;5072714;28;20534;-61
2024/01/22 06:59:30;;;;;;;1.30;1.20;;;;;;;;;;5072683;28;20673;-62
2024/01/22 07:01:58;;;;;;;1.57;1.47;;;;;;;;;;5072646;28;21068;-62
2024/01/22 07:04:25;;;;;;;2.00;1.47;;;;;;;;;;5072507;28;20450;-62
2024/01/22 07:06:52;;;;;;;1.50;1.40;;;;;;;;;;5072765;28;20453;-62
2024/01/22 07:09:19;;;;;;;1.80;1.20;;;;;;;;;;5072684;28;20505;-62
2024/01/22 07:11:46;;;;;;;1.63;1.50;;;;;;;;;;5072660;28;20893;-62
2024/01/22 07:14:14;;;;;;;2.30;1.57;;;;;;;;;;5075455;28;20777;-62
2024/01/22 07:16:42;;;;;;;2.10;1.50;;;;;;;;;;5076395;28;20470;-62
2024/01/22 07:19:09;;;;;;;2.10;1.40;;;;;;;;;;5076412;28;20455;-61
2024/01/22 07:21:36;;;;;;;1.47;1.20;;;;;;;;;;5076091;28;20510;-61
2024/01/22 07:24:03;;;;;;;1.90;1.50;;;;;;;;;;5076281;28;21004;-61
2024/01/22 07:26:30;;;;;;;1.50;1.13;;;;;;;;;;5076351;28;20442;-61
2024/01/22 07:28:58;;;;;;;2.80;1.47;;;;;;;;;;5076341;28;20448;-61
2024/01/22 07:31:24;;;;;;;1.33;1.23;;;;;;;;;;5075973;28;20501;-61
2024/01/22 07:33:53;;;;;;;1.80;1.60;;;;;;;;;;5076261;28;20538;-62
2024/01/22 07:36:20;;;;;;;2.90;1.50;;;;;;;;;;5076142;28;20490;-61
2024/01/22 07:38:47;;;;;;;1.70;1.00;;;;;;;;;;5076164;28;20450;-61
2024/01/22 07:41:14;;;;;;;1.90;1.40;;;;;;;;;;5075972;28;20449;-61
2024/01/22 07:43:41;;;;;;;1.73;1.30;;;;;;;;;;5075934;28;20474;-62
2024/01/22 07:46:07;;;;;;;1.27;1.17;;;;;;;;;;5075817;28;20530;-61
2024/01/22 07:48:34;;;;;;;6.57;1.80;;;;;;;;;;5075840;28;20501;-62
2024/01/22 07:51:02;;;;;;;1.43;1.07;;;;;;;;;;5075855;28;20534;-61
2024/01/22 07:53:29;;;;;;;1.30;1.00;;;;;;;;;;5075708;28;20474;-61
2024/01/22 07:55:56;;;;;;;2.77;1.67;;;;;;;;;;5075635;28;20530;-61
2024/01/22 07:58:23;;;;;;;1.67;1.20;;;;;;;;;;5075489;28;20530;-61
2024/01/22 08:00:50;;;;;;;1.67;1.20;;;;;;;;;;5075809;28;20531;-61
2024/01/22 08:03:17;;;;;;;1.47;1.10;;;;;;;;;;5075630;28;20879;-61
2024/01/22 08:05:44;;;;;;;1.20;1.10;;;;;;;;;;5075592;28;20539;-61
2024/01/22 08:08:13;;;;;;;1.33;1.23;;;;;;;;;;5075410;28;20443;-61
2024/01/22 08:10:39;;;;;;;1.30;1.17;;;;;;;;;;5075379;28;20870;-62
2024/01/22 08:13:06;;;;;;;4.30;1.10;;;;;;;;;;5075071;28;20453;-62
2024/01/22 08:15:33;;;;;;;1.57;1.20;;;;;;;;;;5075241;28;21009;-61
2024/01/22 08:18:01;;;;;;;1.53;1.20;;;;;;;;;;5075256;28;20439;-62
2024/01/22 08:20:28;;;;;;;3.10;1.20;;;;;;;;;;5075157;28;20827;-62
2024/01/22 08:22:55;;;;;;;1.23;1.13;;;;;;;;;;5075152;28;20479;-63
2024/01/22 08:25:28;;;;;;;2.00;1.37;;;;;;;;;;5074674;28;20481;-69
2024/01/22 08:27:55;;;;;;;1.03;0.93;;;;;;;;;;5075342;28;20451;-75
2024/01/22 08:30:22;;;;;;;1.77;1.67;;;;;;;;;;5075277;28;20497;-69
2024/01/22 08:32:49;;;;;;;4.10;1.40;;;;;;;;;;5075147;28;20534;-66
2024/01/22 08:35:16;;;;;;;1.23;1.13;;;;;;;;;;5075192;28;20448;-72
2024/01/22 08:37:45;;;;;;;1.43;1.23;;;;;;;;;;5074829;28;20803;-70
2024/01/22 08:40:16;;;;;;;2.40;1.37;;;;;;;;;;5075125;28;20501;-70
2024/01/22 08:42:45;;;;;;;2.07;1.30;;;;;;;;;;5075175;28;20486;-81
2024/01/22 08:45:12;;;;;;;4.30;1.30;;;;;;;;;;5074828;28;20466;-73
2024/01/22 08:47:39;;;;;;;1.37;1.27;;;;;;;;;;5074764;28;20535;-69
2024/01/22 08:50:06;;;;;;;1.47;1.37;;;;;;;;;;5074764;28;20534;-72
2024/01/22 08:52:33;;;;;;;1.43;1.23;;;;;;;;;;5074628;28;20959;-70
2024/01/22 08:55:01;;;;;;;2.80;1.40;;;;;;;;;;5074971;28;20449;-72
2024/01/22 08:57:28;;;;;;;1.27;1.17;;;;;;;;;;5074698;28;20474;-70
2024/01/22 08:59:57;;;;;;;1.47;1.37;;;;;;;;;;5074540;28;20515;-72
2024/01/22 09:02:24;;;;;;;1.97;1.20;;;;;;;;;;5074410;28;20566;-73
2024/01/22 09:04:51;;;;;;;1.63;1.20;;;;;;;;;;5074159;28;20443;-69
2024/01/22 09:07:19;;;;;;;1.33;1.23;;;;;;;;;;5074505;28;20535;-73
2024/01/22 09:09:46;;;;;;;1.63;1.43;;;;;;;;;;5074367;28;20501;-76
2024/01/22 09:12:13;;;;;;;1.60;1.50;;;;;;;;;;5074409;28;20927;-72
2024/01/22 09:14:40;;;;;;;2.13;1.63;;;;;;;;;;5074267;28;20530;-75
2024/01/22 09:17:08;;;;;;;2.33;1.60;;;;;;;;;;5074174;28;20443;-71
2024/01/22 09:19:35;;;;;;;1.40;1.30;;;;;;;;;;5073798;28;20440;-70
2024/01/22 09:22:02;;;;;;;3.90;1.40;;;;;;;;;;5074300;28;20838;-75
2024/01/22 09:24:29;;;;;;;3.93;1.40;;;;;;;;;;5074107;28;20443;-70
2024/01/22 09:26:56;;;;;;;2.77;1.50;;;;;;;;;;5073896;28;20450;-74
2024/01/22 09:29:23;;;;;;;1.85;1.42;;;;;;;;;;5073934;28;21116;-67
2024/01/22 09:31:50;;;;;;;1.93;1.37;;;;;;;;;;5073908;28;20190;-72
2024/01/22 09:34:18;;;;;;;2.23;1.70;;;;;;;;;;5073746;28;20539;-71
2024/01/22 09:36:45;;;;;;;2.58;1.83;;;;;;;;;;5073672;28;20527;-70
2024/01/22 09:39:12;;;;;;;1.70;1.47;;;;;;;;;;5073886;28;20284;-70
2024/01/22 09:41:40;;;;;;;1.77;1.50;;;;;;;;;;5073624;28;20475;-70
2024/01/22 09:44:08;;;;;;;2.65;1.40;;;;;;;;;;5073501;28;20526;-70
2024/01/22 09:46:35;;;;;;;1.87;1.30;;;;;;;;;;5073586;28;20276;-73
2024/01/22 09:49:02;;;;;;;2.33;1.33;;;;;;;;;;5073827;28;20534;-70
2024/01/22 09:51:30;;;;;;;2.00;1.80;;;;;;;;;;5073655;28;20444;-81
2024/01/22 09:54:04;;;;;;;2.37;2.00;;;;;;;;;;5073537;28;20886;-71
2024/01/22 09:56:31;;;;;;;1.50;1.40;;;;;;;;;;5073408;28;20467;-72
2024/01/22 09:59:01;;;;;;;5.30;1.90;;;;;;;;;;5073415;28;20504;-72
2024/01/22 10:01:29;;;;;;;1.73;1.30;;;;;;;;;;5073547;28;20466;-79
2024/01/22 10:03:57;;;;;;;2.87;1.73;;;;;;;;;;5073307;28;20582;-67
2024/01/22 10:06:24;;;;;;;4.17;1.27;;;;;;;;;;5073426;28;20448;-70
2024/01/22 10:08:58;;;;;;;1.63;1.30;;;;;;;;;;5073334;28;20472;-72
2024/01/22 10:11:29;;;;;;;1.20;1.10;;;;;;;;;;5073152;28;20446;-69
2024/01/22 10:13:56;;;;;;;2.80;1.43;;;;;;;;;;5073038;28;20727;-67
2024/01/22 10:16:25;;;;;;;2.07;1.57;;;;;;;;;;5073330;28;20450;-71
2024/01/22 10:18:57;;;;;;;1.73;1.50;;;;;;;;;;5073251;28;20447;-67
2024/01/22 10:21:24;;;;;;;1.80;1.40;;;;;;;;;;5072982;28;20828;-69
2024/01/22 10:23:58;;;;;;;2.53;1.27;;;;;;;;;;5072816;28;20487;-69
2024/01/22 10:26:25;;;;;;;1.70;1.50;;;;;;;;;;5073176;28;20848;-73
2024/01/22 10:28:52;;;;;;;3.00;1.50;;;;;;;;;;5073124;28;20880;-69
2024/01/22 10:31:19;;;;;;;2.37;1.20;;;;;;;;;;5072896;28;20447;-69
2024/01/22 10:33:48;;;;;;;1.37;1.27;;;;;;;;;;5073179;28;20502;-66
2024/01/22 10:36:16;;;;;;;3.13;1.07;;;;;;;;;;5072886;28;20448;-69
2024/01/22 10:38:43;;;;;;;2.50;1.00;;;;;;;;;;5072754;28;20458;-74
2024/01/22 10:41:18;;;;;;;1.63;1.47;;;;;;;;;;5072760;28;20439;-72
2024/01/22 10:43:45;;;;;;;1.33;1.23;;;;;;;;;;5072683;28;20479;-72
2024/01/22 10:46:12;;;;;;;1.60;1.50;;;;;;;;;;5072645;28;20443;-70
2024/01/22 10:48:41;;;;;;;2.73;1.03;;;;;;;;;;5072148;28;20851;-72
2024/01/22 10:51:09;;;;;;;3.23;1.53;;;;;;;;;;5072602;28;20452;-73
2024/01/22 10:53:36;;;;;;;1.53;1.30;;;;;;;;;;5072802;28;20458;-68
2024/01/22 10:56:05;;;;;;;1.20;1.10;;;;;;;;;;5072813;28;20835;-68
2024/01/22 10:58:41;;;;;;;2.27;1.10;;;;;;;;;;5072712;28;20483;-67
2024/01/22 11:01:11;;;;;;;1.43;1.13;;;;;;;;;;5072646;28;20533;-74
2024/01/22 11:03:40;;;;;;;1.10;1.00;;;;;;;;;;5072521;28;20885;-69
2024/01/22 11:06:08;;;;;;;1.80;1.10;;;;;;;;;;5072768;28;20443;-72
2024/01/22 11:08:35;;;;;;;1.10;1.00;;;;;;;;;;5072717;28;20526;-73
2024/01/22 11:11:04;;;;;;;1.60;1.00;;;;;;;;;;5072730;28;20443;-68
2024/01/22 11:13:31;;;;;;;1.70;1.00;;;;;;;;;;5072347;28;20447;-67
2024/01/22 11:15:59;;;;;;;2.97;1.90;;;;;;;;;;5072404;28;20881;-69
2024/01/22 11:18:26;;;;;;;1.93;1.10;;;;;;;;;;5072363;28;20454;-72
2024/01/22 11:20:58;;;;;;;5.20;1.40;;;;;;;;;;5072558;28;20513;-73
2024/01/22 11:23:25;;;;;;;2.37;1.00;;;;;;;;;;5072146;28;20915;-72
2024/01/22 11:26:01;;;;;;;1.17;1.07;;;;;;;;;;5072383;28;20514;-75
2024/01/22 11:28:29;;;;;;;3.07;1.20;;;;;;;;;;5072444;28;20500;-69
2024/01/22 11:30:56;;;;;;;1.27;0.80;;;;;;;;;;5072332;28;20830;-82
2024/01/22 11:33:33;;;;;;;1.87;0.93;;;;;;;;;;5072413;28;20450;-71
2024/01/22 11:36:00;;;;;;;1.20;1.10;;;;;;;;;;5072246;28;20538;-77
2024/01/22 11:38:45;;;;;;;1.30;1.20;;;;;;;;;;5072202;28;20534;-70
2024/01/22 11:41:12;;;;;;;2.03;1.10;;;;;;;;;;5072162;28;20509;-69
2024/01/22 11:43:38;;;;;;;1.40;0.90;;;;;;;;;;5072265;28;20834;-70
2024/01/22 11:46:10;;;;;;;2.00;1.80;;;;;;;;;;5072358;28;20554;-70
2024/01/22 11:48:38;;;;;;;2.30;1.27;;;;;;;;;;5072082;28;20450;-69
2024/01/22 11:51:06;;;;;;;16.70;9.03;;;;;;;;;;5072018;28;20447;-71
2024/01/22 11:53:33;;;;;;;6.00;3.23;;;;;;;;;;5071842;28;21029;-69
2024/01/22 11:56:03;;;;;;;1.27;1.17;;;;;;;;;;5071873;28;20538;-69
2024/01/22 11:58:31;;;;;;;2.43;1.77;;;;;;;;;;5072068;28;20443;-69
2024/01/22 12:00:59;;;;;;;1.50;1.20;;;;;;;;;;5074131;28;20526;-68
2024/01/22 12:03:26;;;;;;;1.50;1.30;;;;;;;;;;5075636;28;20575;-70
2024/01/22 12:06:00;;;;;;;2.90;1.30;;;;;;;;;;5075369;28;20530;-72
2024/01/22 12:08:27;;;;;;;1.00;0.90;;;;;;;;;;5075329;28;20489;-70
2024/01/22 12:10:56;;;;;;;2.00;1.80;;;;;;;;;;5075589;28;20448;-69
2024/01/22 12:13:23;;;;;;;1.40;1.30;;;;;;;;;;5075385;28;20447;-68
2024/01/22 12:15:56;;;;;;;4.73;1.40;;;;;;;;;;5075132;28;20884;-73
2024/01/22 12:18:24;;;;;;;3.30;1.27;;;;;;;;;;5075317;28;20456;-70
2024/01/22 12:20:50;;;;;;;1.50;1.20;;;;;;;;;;5074894;28;20475;-69
2024/01/22 12:23:30;;;;;;;3.70;1.20;;;;;;;;;;5075331;28;20558;-69
2024/01/22 12:25:57;;;;;;;1.30;1.20;;;;;;;;;;5074592;28;20462;-70
2024/01/22 12:28:25;;;;;;;1.00;0.90;;;;;;;;;;5075136;28;20961;-68
2024/01/22 12:30:59;;;;;;;1.60;1.50;;;;;;;;;;5075089;28;20454;-69
2024/01/22 12:33:26;;;;;;;1.30;1.10;;;;;;;;;;5074984;28;20939;-72
2024/01/22 12:36:05;;;;;;;1.40;1.30;;;;;;;;;;5075151;28;20479;-69
2024/01/22 12:38:38;;;;;;;2.50;0.80;;;;;;;;;;5075120;28;20451;-72
2024/01/22 12:41:09;;;;;;;1.27;0.87;;;;;;;;;;5074959;28;20443;-71
2024/01/22 12:43:36;;;;;;;2.33;1.00;;;;;;;;;;5074671;28;20475;-70
2024/01/22 12:46:07;;;;;;;1.33;1.00;;;;;;;;;;5075146;28;20443;-67
2024/01/22 12:48:34;;;;;;;1.13;1.03;;;;;;;;;;5074902;28;20749;-69
2024/01/22 12:51:01;;;;;;;1.43;0.97;;;;;;;;;;5074572;28;20939;-68
2024/01/22 12:53:28;;;;;;;0.90;0.80;;;;;;;;;;5074727;28;20535;-72
2024/01/22 12:55:56;;;;;;;1.87;1.53;;;;;;;;;;5074561;28;20447;-71
2024/01/22 12:58:25;;;;;;;1.47;1.10;;;;;;;;;;5074365;28;20443;-71
2024/01/22 13:00:53;;;;;;;1.37;1.10;;;;;;;;;;5074128;28;20933;-70
2024/01/22 13:03:20;;;;;;;1.27;0.90;;;;;;;;;;5074551;28;20475;-83
2024/01/22 13:05:47;;;;;;;1.10;1.00;;;;;;;;;;5074456;28;20447;-68
2024/01/22 13:08:14;;;;;;;1.27;1.03;;;;;;;;;;5074261;28;20453;-68
2024/01/22 13:10:41;;;;;;;1.10;1.00;;;;;;;;;;5073632;28;20452;-75
2024/01/22 13:13:11;;;;;;;1.43;0.97;;;;;;;;;;5074427;28;20857;-70
2024/01/22 13:15:38;;;;;;;1.73;1.10;;;;;;;;;;5074331;28;20443;-75
2024/01/22 13:18:05;;;;;;;1.93;0.90;;;;;;;;;;5074292;28;20538;-84
2024/01/22 13:20:32;;;;;;;2.00;0.90;;;;;;;;;;5074354;28;20554;-78
2024/01/22 13:22:59;;;;;;;1.23;0.93;;;;;;;;;;5073825;28;20947;-75
2024/01/22 13:25:26;;;;;;;1.27;0.90;;;;;;;;;;5073683;28;20542;-83
2024/01/22 13:27:55;;;;;;;0.90;0.90;;;;;;;;;;5073876;28;20451;-68
2024/01/22 13:30:23;;;;;;;1.10;1.00;;;;;;;;;;5073966;28;20448;-67
2024/01/22 13:32:50;;;;;;;1.10;1.00;;;;;;;;;;5073929;28;20534;-72
2024/01/22 13:35:17;;;;;;;1.00;0.90;;;;;;;;;;5073904;28;20910;-68
2024/01/22 13:37:44;;;;;;;1.10;1.00;;;;;;;;;;5073696;28;20879;-73
2024/01/22 13:40:12;;;;;;;1.30;1.17;;;;;;;;;;5073760;28;20483;-78
2024/01/22 13:42:39;;;;;;;1.73;1.10;;;;;;;;;;5073637;28;20867;-72
2024/01/22 13:45:07;;;;;;;2.00;1.10;;;;;;;;;;5073599;28;20570;-75
2024/01/22 13:47:37;;;;;;;1.10;0.97;;;;;;;;;;5073482;28;20450;-73
2024/01/22 13:50:04;;;;;;;1.00;0.90;;;;;;;;;;5073383;28;20450;-68
2024/01/22 13:52:31;;;;;;;1.80;0.90;;;;;;;;;;5073340;28;20439;-69
2024/01/22 13:54:58;;;;;;;1.10;1.00;;;;;;;;;;5073187;28;20446;-69
2024/01/22 13:57:25;;;;;;;2.83;1.17;;;;;;;;;;5073003;28;20528;-68
2024/01/22 13:59:52;;;;;;;1.73;0.90;;;;;;;;;;5073412;28;20446;-69
2024/01/22 14:02:19;;;;;;;1.30;1.00;;;;;;;;;;5073211;28;20443;-69
2024/01/22 14:04:47;;;;;;;1.10;1.00;;;;;;;;;;5073227;28;20479;-69
2024/01/22 14:07:14;;;;;;;1.17;1.07;;;;;;;;;;5073416;28;20559;-68
2024/01/22 14:09:41;;;;;;;3.07;1.33;;;;;;;;;;5073325;28;20540;-68
2024/01/22 14:12:08;;;;;;;1.30;1.10;;;;;;;;;;5073342;28;20481;-68
2024/01/22 14:14:35;;;;;;;1.07;0.97;;;;;;;;;;5073167;28;20536;-68
2024/01/22 14:17:02;;;;;;;1.17;0.90;;;;;;;;;;5073184;28;20439;-69
2024/01/22 14:19:32;;;;;;;1.20;0.87;;;;;;;;;;5072794;28;20565;-69
2024/01/22 14:22:00;;;;;;;1.13;1.00;;;;;;;;;;5073012;28;20961;-68
2024/01/22 14:24:27;;;;;;;2.80;1.10;;;;;;;;;;5072693;28;20897;-70
2024/01/22 14:26:54;;;;;;;1.13;0.90;;;;;;;;;;5073103;28;20451;-68
2024/01/22 14:29:21;;;;;;;1.10;1.00;;;;;;;;;;5072842;28;21018;-69
2024/01/22 14:31:48;;;;;;;1.90;1.30;;;;;;;;;;5072937;28;20475;-69
2024/01/22 14:34:16;;;;;;;1.27;0.90;;;;;;;;;;5072854;28;20446;-69
2024/01/22 14:36:43;;;;;;;2.33;1.07;;;;;;;;;;5073007;28;20443;-69
2024/01/22 14:39:11;;;;;;;2.60;1.23;;;;;;;;;;5072890;28;20475;-69
2024/01/22 14:41:38;;;;;;;1.47;1.00;;;;;;;;;;5072744;28;20448;-69
2024/01/22 14:44:05;;;;;;;4.63;1.00;;;;;;;;;;5072758;28;20486;-69
2024/01/22 14:46:32;;;;;;;1.27;1.17;;;;;;;;;;5072635;28;20542;-69